sensor_id;sensor_type;location;lat;lon;timestamp;P1;durP1;ratioP1;P2;durP2;ratioP2
51485;SDS011;37565;51.352;6.412;2023-02-01T17:55:13;8.38;;;2.55;;
51485;SDS011;37565;51.352;6.412;2023-02-01T17:57:44;10.25;;;4.00;;
51485;SDS011;37565;51.352;6.412;2023-02-01T18:00:13;10.68;;;6.45;;
51485;SDS011;37565;51.352;6.412;2023-02-01T18:02:42;14.95;;;5.32;;
51485;SDS011;37565;51.352;6.412;2023-02-01T18:05:14;12.27;;;5.80;;
51485;SDS011;37565;51.352;6.412;2023-02-01T18:07:47;16.83;;;6.18;;
51485;SDS011;37565;51.352;6.412;2023-02-01T18:10:16;13.25;;;5.90;;
51485;SDS011;37565;51.352;6.412;2023-02-01T18:12:44;7.70;;;5.57;;
51485;SDS011;37565;51.352;6.412;2023-02-01T18:15:16;16.55;;;6.22;;
51485;SDS011;37565;51.352;6.412;2023-02-01T18:17:45;17.27;;;6.90;;
51485;SDS011;37565;51.352;6.412;2023-02-01T18:20:15;15.18;;;6.53;;
51485;SDS011;37565;51.352;6.412;2023-02-01T18:22:45;15.10;;;6.80;;
51485;SDS011;37565;51.352;6.412;2023-02-01T18:25:17;14.35;;;7.35;;
51485;SDS011;37565;51.352;6.412;2023-02-01T18:27:47;18.52;;;7.70;;
51485;SDS011;37565;51.352;6.412;2023-02-01T18:30:17;15.27;;;8.35;;
51485;SDS011;37565;51.352;6.412;2023-02-01T18:32:46;14.63;;;8.23;;
51485;SDS011;37565;51.352;6.412;2023-02-01T18:35:16;15.60;;;8.52;;
51485;SDS011;37565;51.352;6.412;2023-02-01T18:37:47;17.40;;;9.40;;
51485;SDS011;37565;51.352;6.412;2023-02-01T18:40:18;25.85;;;8.30;;
51485;SDS011;37565;51.352;6.412;2023-02-01T18:42:47;16.48;;;8.27;;
51485;SDS011;37565;51.352;6.412;2023-02-01T18:45:23;18.15;;;9.75;;
51485;SDS011;37565;51.352;6.412;2023-02-01T18:47:55;20.55;;;10.98;;
51485;SDS011;37565;51.352;6.412;2023-02-01T18:50:25;19.83;;;11.70;;
51485;SDS011;37565;51.352;6.412;2023-02-01T18:52:55;19.35;;;11.40;;
51485;SDS011;37565;51.352;6.412;2023-02-01T18:55:26;16.98;;;10.52;;
51485;SDS011;37565;51.352;6.412;2023-02-01T18:57:55;19.25;;;10.70;;
51485;SDS011;37565;51.352;6.412;2023-02-01T19:00:23;17.20;;;9.50;;
51485;SDS011;37565;51.352;6.412;2023-02-01T19:02:51;17.23;;;10.32;;
51485;SDS011;37565;51.352;6.412;2023-02-01T19:05:19;17.50;;;9.52;;
51485;SDS011;37565;51.352;6.412;2023-02-01T19:07:48;19.20;;;10.18;;
51485;SDS011;37565;51.352;6.412;2023-02-01T19:10:16;20.73;;;10.75;;
51485;SDS011;37565;51.352;6.412;2023-02-01T19:12:48;20.45;;;11.73;;
51485;SDS011;37565;51.352;6.412;2023-02-01T19:15:17;22.13;;;12.88;;
51485;SDS011;37565;51.352;6.412;2023-02-01T19:17:46;19.38;;;11.95;;
51485;SDS011;37565;51.352;6.412;2023-02-01T19:20:16;19.88;;;11.55;;
51485;SDS011;37565;51.352;6.412;2023-02-01T19:22:45;16.90;;;11.65;;
51485;SDS011;37565;51.352;6.412;2023-02-01T19:25:15;16.00;;;11.23;;
51485;SDS011;37565;51.352;6.412;2023-02-01T19:27:44;16.05;;;10.98;;
51485;SDS011;37565;51.352;6.412;2023-02-01T19:30:14;17.67;;;11.18;;
51485;SDS011;37565;51.352;6.412;2023-02-01T19:32:42;22.15;;;12.57;;
51485;SDS011;37565;51.352;6.412;2023-02-01T19:35:13;22.23;;;12.73;;
51485;SDS011;37565;51.352;6.412;2023-02-01T19:37:44;20.92;;;12.30;;
51485;SDS011;37565;51.352;6.412;2023-02-01T19:40:14;15.88;;;11.52;;
51485;SDS011;37565;51.352;6.412;2023-02-01T19:42:44;18.60;;;11.98;;
51485;SDS011;37565;51.352;6.412;2023-02-01T19:45:14;34.38;;;12.45;;
51485;SDS011;37565;51.352;6.412;2023-02-01T19:47:42;18.98;;;12.20;;
51485;SDS011;37565;51.352;6.412;2023-02-01T19:50:14;20.73;;;12.43;;
51485;SDS011;37565;51.352;6.412;2023-02-01T19:52:43;17.50;;;11.15;;
51485;SDS011;37565;51.352;6.412;2023-02-01T19:55:11;16.65;;;11.15;;
51485;SDS011;37565;51.352;6.412;2023-02-01T19:57:39;18.50;;;10.82;;
51485;SDS011;37565;51.352;6.412;2023-02-01T20:00:09;14.23;;;9.55;;
51485;SDS011;37565;51.352;6.412;2023-02-01T20:02:40;14.40;;;9.32;;
51485;SDS011;37565;51.352;6.412;2023-02-01T20:05:09;14.88;;;8.52;;
51485;SDS011;37565;51.352;6.412;2023-02-01T20:07:37;12.98;;;9.10;;
51485;SDS011;37565;51.352;6.412;2023-02-01T20:10:06;13.25;;;8.63;;
51485;SDS011;37565;51.352;6.412;2023-02-01T20:12:35;15.95;;;9.32;;
51485;SDS011;37565;51.352;6.412;2023-02-01T20:15:03;13.90;;;9.18;;
51485;SDS011;37565;51.352;6.412;2023-02-01T20:17:34;13.65;;;9.25;;
51485;SDS011;37565;51.352;6.412;2023-02-01T20:20:04;13.10;;;8.60;;
51485;SDS011;37565;51.352;6.412;2023-02-01T20:22:32;16.90;;;10.13;;
51485;SDS011;37565;51.352;6.412;2023-02-01T20:25:00;15.25;;;9.98;;
51485;SDS011;37565;51.352;6.412;2023-02-01T20:27:29;15.30;;;10.25;;
51485;SDS011;37565;51.352;6.412;2023-02-01T20:29:57;17.40;;;10.43;;
51485;SDS011;37565;51.352;6.412;2023-02-01T20:32:25;21.17;;;11.20;;
51485;SDS011;37565;51.352;6.412;2023-02-01T20:34:53;16.10;;;11.00;;
51485;SDS011;37565;51.352;6.412;2023-02-01T20:37:23;15.93;;;11.80;;
51485;SDS011;37565;51.352;6.412;2023-02-01T20:39:51;19.10;;;12.00;;
51485;SDS011;37565;51.352;6.412;2023-02-01T20:42:19;18.17;;;12.98;;
51485;SDS011;37565;51.352;6.412;2023-02-01T20:44:47;21.42;;;13.48;;
51485;SDS011;37565;51.352;6.412;2023-02-01T20:47:15;25.20;;;14.20;;
51485;SDS011;37565;51.352;6.412;2023-02-01T20:49:43;22.50;;;14.60;;
51485;SDS011;37565;51.352;6.412;2023-02-01T20:52:11;30.55;;;13.38;;
51485;SDS011;37565;51.352;6.412;2023-02-01T20:54:40;20.20;;;12.63;;
51485;SDS011;37565;51.352;6.412;2023-02-01T20:57:08;21.67;;;13.63;;
51485;SDS011;37565;51.352;6.412;2023-02-01T20:59:36;22.27;;;13.70;;
51485;SDS011;37565;51.352;6.412;2023-02-01T21:02:04;17.98;;;12.60;;
51485;SDS011;37565;51.352;6.412;2023-02-01T21:04:33;19.60;;;13.27;;
51485;SDS011;37565;51.352;6.412;2023-02-01T21:07:02;22.75;;;13.93;;
51485;SDS011;37565;51.352;6.412;2023-02-01T21:09:30;24.45;;;17.13;;
51485;SDS011;37565;51.352;6.412;2023-02-01T21:11:59;24.00;;;15.05;;
51485;SDS011;37565;51.352;6.412;2023-02-01T21:14:27;24.30;;;16.52;;
51485;SDS011;37565;51.352;6.412;2023-02-01T21:16:55;22.70;;;15.73;;
51485;SDS011;37565;51.352;6.412;2023-02-01T21:19:23;22.08;;;16.75;;
51485;SDS011;37565;51.352;6.412;2023-02-01T21:21:52;25.65;;;17.02;;
51485;SDS011;37565;51.352;6.412;2023-02-01T21:24:20;25.80;;;17.75;;
51485;SDS011;37565;51.352;6.412;2023-02-01T21:26:48;25.40;;;16.25;;
51485;SDS011;37565;51.352;6.412;2023-02-01T21:29:17;26.52;;;17.02;;
51485;SDS011;37565;51.352;6.412;2023-02-01T21:31:45;25.05;;;17.23;;
51485;SDS011;37565;51.352;6.412;2023-02-01T21:34:13;26.10;;;16.27;;
51485;SDS011;37565;51.352;6.412;2023-02-01T21:36:41;25.65;;;17.25;;
51485;SDS011;37565;51.352;6.412;2023-02-01T21:39:09;27.13;;;17.77;;
51485;SDS011;37565;51.352;6.412;2023-02-01T21:41:37;25.60;;;17.90;;
51485;SDS011;37565;51.352;6.412;2023-02-01T21:44:24;25.02;;;16.73;;
51485;SDS011;37565;51.352;6.412;2023-02-01T21:46:52;28.00;;;18.45;;
51485;SDS011;37565;51.352;6.412;2023-02-01T21:49:20;25.98;;;17.65;;
51485;SDS011;37565;51.352;6.412;2023-02-01T21:51:50;31.73;;;19.08;;
51485;SDS011;37565;51.352;6.412;2023-02-01T21:54:18;30.58;;;20.33;;
51485;SDS011;37565;51.352;6.412;2023-02-01T21:56:46;34.72;;;22.52;;
51485;SDS011;37565;51.352;6.412;2023-02-01T21:59:14;29.98;;;20.05;;
51485;SDS011;37565;51.352;6.412;2023-02-01T22:01:43;32.00;;;21.52;;
51485;SDS011;37565;51.352;6.412;2023-02-01T22:04:11;30.65;;;20.80;;
51485;SDS011;37565;51.352;6.412;2023-02-01T22:06:40;33.63;;;22.73;;
51485;SDS011;37565;51.352;6.412;2023-02-01T22:09:13;34.83;;;22.23;;
51485;SDS011;37565;51.352;6.412;2023-02-01T22:11:43;37.00;;;24.92;;
51485;SDS011;37565;51.352;6.412;2023-02-01T22:14:11;42.83;;;25.38;;
51485;SDS011;37565;51.352;6.412;2023-02-01T22:16:39;38.80;;;25.30;;
51485;SDS011;37565;51.352;6.412;2023-02-01T22:19:09;41.28;;;26.38;;
51485;SDS011;37565;51.352;6.412;2023-02-01T22:21:37;45.33;;;29.17;;
51485;SDS011;37565;51.352;6.412;2023-02-01T22:24:07;50.25;;;28.65;;
51485;SDS011;37565;51.352;6.412;2023-02-01T22:26:37;45.80;;;29.13;;
51485;SDS011;37565;51.352;6.412;2023-02-01T22:29:05;47.22;;;29.48;;
51485;SDS011;37565;51.352;6.412;2023-02-01T22:31:34;43.55;;;29.80;;
51485;SDS011;37565;51.352;6.412;2023-02-01T22:34:02;42.97;;;29.38;;
51485;SDS011;37565;51.352;6.412;2023-02-01T22:36:31;47.45;;;31.02;;
51485;SDS011;37565;51.352;6.412;2023-02-01T22:38:59;45.85;;;30.50;;
51485;SDS011;37565;51.352;6.412;2023-02-01T22:41:27;50.50;;;31.88;;
51485;SDS011;37565;51.352;6.412;2023-02-01T22:43:55;47.15;;;31.83;;
51485;SDS011;37565;51.352;6.412;2023-02-01T22:46:23;52.00;;;33.35;;
51485;SDS011;37565;51.352;6.412;2023-02-01T22:48:51;53.13;;;34.10;;
51485;SDS011;37565;51.352;6.412;2023-02-01T22:51:20;47.17;;;31.02;;
51485;SDS011;37565;51.352;6.412;2023-02-01T22:53:51;52.00;;;32.50;;
51485;SDS011;37565;51.352;6.412;2023-02-01T22:56:23;47.70;;;31.27;;
51485;SDS011;37565;51.352;6.412;2023-02-01T22:58:54;48.22;;;30.60;;
51485;SDS011;37565;51.352;6.412;2023-02-01T23:01:24;47.88;;;30.40;;
51485;SDS011;37565;51.352;6.412;2023-02-01T23:03:54;43.13;;;29.58;;
51485;SDS011;37565;51.352;6.412;2023-02-01T23:06:23;46.45;;;30.83;;
51485;SDS011;37565;51.352;6.412;2023-02-01T23:08:56;45.92;;;30.20;;
51485;SDS011;37565;51.352;6.412;2023-02-01T23:11:25;47.63;;;31.40;;
51485;SDS011;37565;51.352;6.412;2023-02-01T23:13:54;48.28;;;31.05;;
51485;SDS011;37565;51.352;6.412;2023-02-01T23:16:22;44.05;;;30.75;;
51485;SDS011;37565;51.352;6.412;2023-02-01T23:18:50;49.03;;;32.08;;
51485;SDS011;37565;51.352;6.412;2023-02-01T23:21:19;45.90;;;31.00;;
51485;SDS011;37565;51.352;6.412;2023-02-01T23:23:51;49.65;;;31.33;;
51485;SDS011;37565;51.352;6.412;2023-02-01T23:26:24;50.70;;;33.22;;
51485;SDS011;37565;51.352;6.412;2023-02-01T23:28:53;48.20;;;32.63;;
51485;SDS011;37565;51.352;6.412;2023-02-01T23:31:23;50.47;;;33.88;;
51485;SDS011;37565;51.352;6.412;2023-02-01T23:33:52;48.33;;;31.55;;
51485;SDS011;37565;51.352;6.412;2023-02-01T23:36:22;48.72;;;32.55;;
51485;SDS011;37565;51.352;6.412;2023-02-01T23:38:51;54.08;;;32.85;;
51485;SDS011;37565;51.352;6.412;2023-02-01T23:41:20;56.47;;;35.00;;
51485;SDS011;37565;51.352;6.412;2023-02-01T23:43:52;52.08;;;34.00;;
51485;SDS011;37565;51.352;6.412;2023-02-01T23:46:27;56.20;;;34.42;;
51485;SDS011;37565;51.352;6.412;2023-02-01T23:48:59;53.17;;;34.00;;
51485;SDS011;37565;51.352;6.412;2023-02-01T23:51:28;52.80;;;34.30;;
51485;SDS011;37565;51.352;6.412;2023-02-01T23:53:57;54.72;;;34.83;;
51485;SDS011;37565;51.352;6.412;2023-02-01T23:56:27;52.88;;;35.13;;
51485;SDS011;37565;51.352;6.412;2023-02-01T23:58:58;56.13;;;36.30;;
